San Javier, Argentina
Current Conditions -  °F | °C
As of 2:00 AM on Saturday 01 Nov 2014 (Local Time) from SAAR Reporting Station
Drizzle Drizzle  
Wind Chill: 61°   Ceiling: 1200
Heat Index: 61°   Visibility: 6mi
Dew Point: 57°   Wind: 12mph
Humidity: 88%   Direction: 160°SSE
Pressure: 30.06"   Gusts: NA
Location:  30.58°S, 59.95°W
Report Text: SAAR 010500Z 16010KT 9000 -DZ BKN012 OVC01516/14 Q1018
Loading
Personal Weather Stations






























Interactive Weather Map
Tropical Storm Tracking
New forecast layout! Learn more

10-Day Weather Forecast

Advertisements
Track Severe Weather on mobile